BYT weather

Bantry Aerodrome
Bantry, County Cork, Ireland

Public forecast

Using degrees Celsius for public forecast. Weather courtesy of forecast.io.

METAR (pilot weather report)

Closest report is Kerry Airport, 30.8 nm (57.0 km) N. Retrieved 2019/06/19 16:30 UTC (0 seconds ago):

EIKY 191630Z 27013G23KT 240V300 9999 SCT034 15/09 Q1010

TAF (pilot weather forecast)

Closest forecast is Cork Airport, 38.3 nm (71.0 km) ENE. Retrieved 2019/06/19 12:11 UTC (4 hours ago):

TAF EICK 191100Z 1912/2012 28010KT 9999 FEW018 SCT040 TEMPO 1912/1918 -SHRA SCT018CB PROB30 TEMPO 2002/2005 4000 BR